Evansville Regional Airport
KEVV : now visible

Airfield :











YOU CAN JOIN US ON...

 
LOGIN :

Register | Disclaimer

   EN    FR    IT 

 









Legend :    VFR   Marginal VFR   IFR   Intensive IFR   Very Intensive IFR
Visi :
Ceiling :
>= 8 km
>= 3000ft
5 to 8 km
1000 to 3000 ft
1500m to 5 km
500 to 1000 ft
800 to 1500m
200 to 500 ft
< 800m
< 200 ft
Symbols :   Thunderstorms  Fog  Heavy snow  Heavy precipitations  Wind > 20 kt






- Airport Elevation : 418 ft
- IATA code : EVV


KEVV - Evansville Regional

CURRENT METAR :
  • 231454Z 21008G15KT 10SM BKN075 07/M03 A3017 RMK AO2 SLP218 T00671033 55001

EXPIRED METARs :
  • 231354Z 16004KT 10SM OVC080 05/M04 A3017 RMK AO2 SLP218 T00501044
  • 231254Z 18006KT 10SM OVC080 03/M05 A3016 RMK AO2 SLP215 T00331050

TAF KEVV
Valid from the 23 at 12:00 until the 24 at 12:00 UTC


231120Z 2312/2412 19005KT P6SM BKN150
FM240300 20008KT P6SM VCSH OVC024
FM240500 20007KT 5SM -SHRA BR OVC014
FM240800 18005KT 3SM -SHRA BR OVC007



MET'MAP, your aeronautical weather chart ! - Copyright ORBIFLY December 2007 - Disclaimer

ORBIFLY MET'MAP TEAM :

Programming & Development : Alexandra Zaïnal
Concept & original design : Baudouin d'Aumeries
Assistance for programming : Marc-Olivier Méhu
Technical & hardware support : Manuel Goepfert

Contact : metmap@orbifly.com




SOURCES & CREDITS :

   NOAA       Earth
Advisory